Time;durP1;ratioP1;P1;durP2;ratioP2;P2;SDS_P1;SDS_P2;PMS_P1;PMS_P2;Temp;Humidity;BMP_temperature;BMP_pressure;BME280_temperature;BME280_humidity;BME280_pressure;Samples;Min_cycle;Max_cycle;Signal;HPM_P1;HPM_P2
2022/09/10 05:25:06;;;;;;;35.00;18.67;;;;;;;10.88;100.00;97867.81;1827083;77;21534;-57
2022/09/10 05:27:33;;;;;;;28.32;16.67;;;;;;;10.93;100.00;97874.42;1822413;77;21696;-57
2022/09/10 05:30:00;;;;;;;70.37;41.18;;;;;;;10.99;100.00;97885.33;1822800;78;21027;-58
2022/09/10 05:32:28;;;;;;;42.33;27.42;;;;;;;11.08;100.00;97882.75;1821981;78;22102;-57
2022/09/10 05:34:55;;;;;;;29.50;14.58;;;;;;;11.19;100.00;97875.33;1822554;78;20882;-58
2022/09/10 05:37:22;;;;;;;34.65;25.48;;;;;;;11.33;100.00;97878.81;1823594;78;21000;-57
2022/09/10 05:39:49;;;;;;;39.65;25.48;;;;;;;11.43;100.00;97869.21;1819535;78;21229;-57
2022/09/10 05:42:15;;;;;;;51.83;41.08;;;;;;;11.52;100.00;97876.80;1823589;78;20932;-57
2022/09/10 05:44:43;;;;;;;43.52;33.60;;;;;;;11.58;100.00;97876.97;1821920;78;21007;-57
2022/09/10 05:47:10;;;;;;;23.80;15.18;;;;;;;11.68;100.00;97868.75;1823880;78;21482;-57
2022/09/10 05:49:37;;;;;;;47.38;26.33;;;;;;;11.81;100.00;97865.78;1824571;78;20984;-59
2022/09/10 05:52:04;;;;;;;25.23;16.57;;;;;;;11.88;100.00;97862.95;1823767;78;21239;-56
2022/09/10 05:54:31;;;;;;;27.52;17.20;;;;;;;11.94;100.00;97857.70;1824721;78;20917;-57
2022/09/10 05:56:58;;;;;;;28.55;17.85;;;;;;;11.97;100.00;97858.45;1822916;78;21403;-57
2022/09/10 05:59:33;;;;;;;38.08;24.65;;;;;;;12.00;100.00;97840.41;1823666;78;20964;-59
2022/09/10 06:02:00;;;;;;;18.20;13.28;;;;;;;12.05;100.00;97848.35;1815743;78;21114;-57
2022/09/10 06:04:27;;;;;;;16.32;11.90;;;;;;;12.06;100.00;97841.87;1822822;78;21992;-56
2022/09/10 06:06:55;;;;;;;15.03;11.18;;;;;;;12.08;100.00;97847.72;1785765;80;20978;-56
2022/09/10 06:09:22;;;;;;;18.73;11.80;;;;;;;12.09;100.00;97848.52;1771856;80;21442;-56
2022/09/10 06:11:50;;;;;;;25.88;15.00;;;;;;;12.07;100.00;97846.16;1744877;80;20974;-57
2022/09/10 06:14:19;;;;;;;17.20;11.80;;;;;;;12.08;100.00;97839.67;1786214;80;21040;-56
2022/09/10 06:16:48;;;;;;;14.38;11.22;;;;;;;12.11;100.00;97835.05;1757901;81;21305;-56
2022/09/10 06:19:16;;;;;;;14.80;10.82;;;;;;;12.15;100.00;97831.98;1770238;80;20983;-56
2022/09/10 06:21:44;;;;;;;18.57;11.30;;;;;;;12.20;100.00;97825.16;1761797;81;21471;-57
2022/09/10 06:24:13;;;;;;;15.75;11.88;;;;;;;12.22;100.00;97831.02;1772363;81;20904;-58
2022/09/10 06:26:41;;;;;;;14.53;10.93;;;;;;;12.29;100.00;97834.65;1741056;81;21080;-58
2022/09/10 06:29:17;;;;;;;13.93;10.35;;;;;;;12.33;100.00;97821.65;1751134;80;21053;-59
2022/09/10 06:31:47;;;;;;;15.35;9.88;;;;;;;12.35;100.00;97815.42;1825850;77;20982;-58
2022/09/10 06:34:17;;;;;;;13.30;10.70;;;;;;;12.40;100.00;97811.02;1822163;78;21650;-58
2022/09/10 06:36:59;;;;;;;17.37;11.68;;;;;;;12.43;100.00;97813.89;1820758;78;21060;-57
2022/09/10 06:39:27;;;;;;;17.12;12.03;;;;;;;12.46;100.00;97815.95;1820182;78;21034;-58
2022/09/10 06:41:56;;;;;;;12.88;11.45;;;;;;;12.50;100.00;97816.14;1821810;78;21347;-57
2022/09/10 06:44:41;;;;;;;15.40;11.35;;;;;;;12.50;100.00;97818.29;1819969;78;21034;-56
2022/09/10 06:47:12;;;;;;;16.57;10.68;;;;;;;12.48;100.00;97815.12;1810099;78;21031;-59
2022/09/10 06:49:40;;;;;;;15.68;11.08;;;;;;;12.49;100.00;97815.34;1815602;78;20898;-56
2022/09/10 06:52:10;;;;;;;15.40;11.68;;;;;;;12.52;100.00;97815.28;1817063;78;20896;-57
2022/09/10 06:54:39;;;;;;;13.88;11.53;;;;;;;12.48;100.00;97821.03;1819810;77;21974;-57
2022/09/10 06:57:17;;;;;;;15.25;10.63;;;;;;;12.45;100.00;97822.98;1786529;78;21549;-59
2022/09/10 06:59:44;;;;;;;12.15;10.30;;;;;;;12.44;100.00;97817.35;1789524;77;21086;-61
2022/09/10 07:02:11;;;;;;;16.87;12.30;;;;;;;12.44;100.00;97808.75;1816652;78;21471;-56
2022/09/10 07:04:39;;;;;;;21.65;12.98;;;;;;;12.41;100.00;97820.67;1815540;78;21148;-57
2022/09/10 07:07:08;;;;;;;14.95;11.78;;;;;;;12.39;100.00;97817.50;1812836;78;21192;-58
2022/09/10 07:09:35;;;;;;;15.10;11.73;;;;;;;12.38;100.00;97819.39;1820526;77;20935;-58
2022/09/10 07:12:04;;;;;;;14.58;11.83;;;;;;;12.39;100.00;97810.78;1777102;80;21594;-58
2022/09/10 07:14:33;;;;;;;14.05;11.40;;;;;;;12.40;100.00;97802.95;1820243;78;20911;-56
2022/09/10 07:17:01;;;;;;;15.23;11.40;;;;;;;12.44;100.00;97799.34;1800811;78;20943;-56
2022/09/10 07:19:30;;;;;;;13.72;10.30;;;;;;;12.45;100.00;97797.46;1816877;78;21109;-55
2022/09/10 07:21:57;;;;;;;12.90;10.28;;;;;;;12.45;100.00;97792.89;1822808;77;21062;-57
2022/09/10 07:24:25;;;;;;;12.45;10.00;;;;;;;12.45;100.00;97779.46;1818311;78;20990;-56
2022/09/10 07:26:59;;;;;;;17.67;11.48;;;;;;;12.50;100.00;97770.48;1803197;77;20927;-57
2022/09/10 07:29:29;;;;;;;14.15;11.18;;;;;;;12.52;100.00;97777.67;1813825;78;20961;-56
2022/09/10 07:31:55;;;;;;;11.68;10.48;;;;;;;12.53;100.00;97788.67;1824032;78;21101;-56
2022/09/10 07:34:24;;;;;;;15.40;10.40;;;;;;;12.53;100.00;97803.45;1816321;78;20980;-58
2022/09/10 07:36:51;;;;;;;13.00;10.38;;;;;;;12.49;100.00;97801.91;1808739;78;20988;-54
2022/09/10 07:39:19;;;;;;;13.85;11.05;;;;;;;12.48;100.00;97796.31;1796142;78;21016;-56
2022/09/10 07:41:45;;;;;;;14.25;10.98;;;;;;;12.54;100.00;97791.59;1806848;77;21007;-55
2022/09/10 07:44:14;;;;;;;14.83;10.93;;;;;;;12.60;100.00;97797.09;1817928;78;21237;-55
2022/09/10 07:46:45;;;;;;;13.65;10.55;;;;;;;12.68;100.00;97793.10;1766254;79;20898;-54
2022/09/10 07:49:14;;;;;;;12.37;10.38;;;;;;;12.76;100.00;97795.05;1756184;81;20935;-56
2022/09/10 07:51:42;;;;;;;11.97;10.25;;;;;;;12.81;100.00;97782.03;1823995;78;20983;-55
2022/09/10 07:54:09;;;;;;;15.18;10.78;;;;;;;12.84;100.00;97776.02;1822711;77;21097;-59
2022/09/10 07:56:41;;;;;;;14.87;10.68;;;;;;;12.84;100.00;97769.30;1812099;77;21114;-56
2022/09/10 07:59:11;;;;;;;14.43;10.25;;;;;;;12.80;100.00;97762.96;1822426;78;21246;-55
2022/09/10 08:01:39;;;;;;;14.28;9.90;;;;;;;12.81;100.00;97759.19;1823947;78;20884;-55
2022/09/10 08:04:06;;;;;;;12.10;9.58;;;;;;;12.81;100.00;97767.25;1820813;77;20957;-56
2022/09/10 08:06:36;;;;;;;13.48;11.30;;;;;;;12.79;100.00;97760.02;1821576;77;21412;-55
2022/09/10 08:09:08;;;;;;;11.57;10.20;;;;;;;12.79;100.00;97750.61;1817380;77;21231;-56
2022/09/10 08:11:39;;;;;;;12.43;10.15;;;;;;;12.78;100.00;97765.97;1828097;77;20876;-56
2022/09/10 08:14:06;;;;;;;14.05;10.28;;;;;;;12.77;100.00;97763.57;1820561;77;20991;-58
2022/09/10 08:16:35;;;;;;;12.60;9.43;;;;;;;12.75;100.00;97759.86;1824753;77;21013;-57
2022/09/10 08:19:04;;;;;;;11.75;9.75;;;;;;;12.81;100.00;97757.84;1780151;79;21497;-60
2022/09/10 08:21:31;;;;;;;11.83;9.33;;;;;;;12.84;100.00;97749.94;1770177;80;21230;-60
2022/09/10 08:23:59;;;;;;;14.38;9.50;;;;;;;12.86;100.00;97739.66;1742586;80;21077;-60
2022/09/10 08:26:27;;;;;;;11.70;9.10;;;;;;;12.86;100.00;97746.38;1772972;79;20930;-58
2022/09/10 08:29:03;;;;;;;12.03;8.38;;;;;;;12.85;100.00;97744.02;1751497;80;21087;-60
2022/09/10 08:31:43;;;;;;;15.15;10.88;;;;;;;12.84;100.00;97735.70;1755270;81;21045;-64
2022/09/10 08:34:28;;;;;;;10.95;9.15;;;;;;;12.85;100.00;97731.92;1756651;81;21543;-62
2022/09/10 08:36:58;;;;;;;12.82;10.40;;;;;;;12.83;100.00;97720.69;1818890;78;20896;-59
2022/09/10 08:39:25;;;;;;;10.25;8.30;;;;;;;12.79;100.00;97722.39;1814606;78;20975;-58
2022/09/10 08:42:00;;;;;;;11.50;9.40;;;;;;;12.79;100.00;97719.16;1817832;78;21423;-59
2022/09/10 08:44:35;;;;;;;11.28;8.30;;;;;;;12.80;100.00;97717.27;1773030;78;21877;-58
2022/09/10 08:47:19;;;;;;;10.63;9.40;;;;;;;12.78;100.00;97720.28;1808890;79;21324;-64
2022/09/10 08:50:01;;;;;;;16.25;11.35;;;;;;;12.78;100.00;97714.11;1791847;78;21427;-59
2022/09/10 08:52:36;;;;;;;11.83;9.68;;;;;;;12.77;100.00;97708.48;1817517;78;21066;-59
2022/09/10 08:55:20;;;;;;;12.13;9.00;;;;;;;12.76;100.00;97713.63;1819775;78;21019;-57
2022/09/10 08:58:02;;;;;;;13.65;8.18;;;;;;;12.70;100.00;97714.31;1815634;78;21454;-61
2022/09/10 09:00:33;;;;;;;10.18;8.48;;;;;;;12.67;100.00;97698.80;1820360;78;21176;-59
2022/09/10 09:03:40;;;;;;;10.63;8.80;;;;;;;12.68;100.00;97699.05;1816803;77;20992;-58
2022/09/10 09:06:25;;;;;;;8.25;7.30;;;;;;;12.69;100.00;97701.20;1806970;79;20869;-58
2022/09/10 09:08:53;;;;;;;8.93;6.28;;;;;;;12.66;100.00;97697.78;1805088;79;20939;-59
2022/09/10 09:11:47;;;;;;;6.47;5.80;;;;;;;12.68;100.00;97699.59;1808586;79;21545;-57
2022/09/10 09:14:48;;;;;;;8.95;6.67;;;;;;;12.70;100.00;97704.91;1809158;79;21971;-60
2022/09/10 09:17:40;;;;;;;11.83;6.90;;;;;;;12.69;100.00;97696.62;1814253;79;20923;-59
2022/09/10 09:20:35;;;;;;;6.75;5.30;;;;;;;12.69;100.00;97693.13;1803874;79;21019;-61
2022/09/10 09:23:22;;;;;;;7.75;5.45;;;;;;;12.69;100.00;97696.62;1821184;78;21386;-56
2022/09/10 09:26:12;;;;;;;5.20;4.50;;;;;;;12.68;100.00;97698.25;1824001;78;20951;-58
2022/09/10 09:28:49;;;;;;;5.90;4.70;;;;;;;12.66;100.00;97701.81;1824204;78;21171;-60
2022/09/10 09:31:26;;;;;;;5.28;4.60;;;;;;;12.62;100.00;97692.25;1824482;78;21384;-62
2022/09/10 09:34:03;;;;;;;5.20;4.47;;;;;;;12.62;100.00;97680.70;1824392;78;21422;-58
2022/09/10 09:36:38;;;;;;;6.50;4.20;;;;;;;12.62;100.00;97672.64;1824253;78;20923;-58
2022/09/10 09:39:29;;;;;;;6.97;4.97;;;;;;;12.61;100.00;97661.64;1755231;80;21082;-57
2022/09/10 09:42:23;;;;;;;4.53;3.58;;;;;;;12.61;100.00;97652.23;1781815;80;21299;-59
2022/09/10 09:45:05;;;;;;;6.20;4.65;;;;;;;12.65;100.00;97631.15;1782676;79;20991;-58
2022/09/10 09:47:37;;;;;;;4.12;3.40;;;;;;;12.65;100.00;97631.70;1778404;80;21006;-60
2022/09/10 09:50:07;;;;;;;8.40;3.70;;;;;;;12.62;100.00;97622.94;1764719;80;21477;-59
2022/09/10 09:52:37;;;;;;;4.65;3.42;;;;;;;12.60;100.00;97617.85;1751143;82;21066;-59
2022/09/10 09:55:08;;;;;;;5.97;3.15;;;;;;;12.58;100.00;97616.03;1751387;82;21241;-58
2022/09/10 09:57:36;;;;;;;10.53;4.65;;;;;;;12.61;100.00;97615.97;1772418;79;21944;-58
2022/09/10 10:00:36;;;;;;;6.72;4.75;;;;;;;12.62;100.00;97614.87;1781258;80;20943;-59
2022/09/10 10:03:23;;;;;;;6.47;2.98;;;;;;;12.65;100.00;97630.35;1779979;80;20943;-57
2022/09/10 10:05:50;;;;;;;12.88;4.67;;;;;;;12.64;100.00;97597.34;1759497;80;20970;-60
2022/09/10 10:08:39;;;;;;;14.20;4.55;;;;;;;12.68;100.00;97578.68;1774949;80;21270;-60
2022/09/10 10:11:07;;;;;;;12.88;6.30;;;;;;;12.73;100.00;97587.40;1762465;81;20980;-59
2022/09/10 10:13:44;;;;;;;12.23;3.95;;;;;;;12.73;100.00;97583.91;1785149;79;20840;-58
2022/09/10 10:16:25;;;;;;;6.08;3.17;;;;;;;12.68;100.00;97588.09;1756816;81;21035;-59
2022/09/10 10:18:52;;;;;;;6.03;3.20;;;;;;;12.69;100.00;97577.05;1764610;81;20925;-59
2022/09/10 10:21:32;;;;;;;3.92;2.30;;;;;;;12.70;100.00;97557.66;1757245;81;21655;-57
2022/09/10 10:23:58;;;;;;;2.62;1.98;;;;;;;12.73;100.00;97563.77;1768016;80;21079;-56
2022/09/10 10:26:32;;;;;;;4.60;2.00;;;;;;;12.75;100.00;97557.52;1772754;80;21044;-57
2022/09/10 10:29:17;;;;;;;5.42;2.47;;;;;;;12.73;100.00;97562.41;1773019;80;21660;-59
2022/09/10 10:31:46;;;;;;;2.87;1.93;;;;;;;12.70;100.00;97559.80;1758999;80;21031;-59
2022/09/10 10:34:45;;;;;;;1.85;1.62;;;;;;;12.68;100.00;97559.88;1778758;80;21247;-57
2022/09/10 10:37:47;;;;;;;4.87;2.60;;;;;;;12.67;100.00;97565.03;1770388;79;20872;-57
2022/09/10 10:40:29;;;;;;;2.47;2.15;;;;;;;12.67;100.00;97562.34;1751913;82;20927;-56
2022/09/10 10:43:47;;;;;;;5.62;2.92;;;;;;;12.70;100.00;97563.03;1751943;82;20844;-58
2022/09/10 10:46:19;;;;;;;2.37;1.92;;;;;;;12.71;100.00;97561.94;1770348;79;21457;-57
2022/09/10 10:49:06;;;;;;;3.77;2.35;;;;;;;12.73;100.00;97566.45;1798303;79;21205;-57
2022/09/10 10:52:14;;;;;;;3.42;2.27;;;;;;;12.74;100.00;97565.35;1801841;79;20917;-57
2022/09/10 10:55:24;;;;;;;3.85;2.87;;;;;;;12.78;100.00;97551.52;1796936;79;20873;-57
2022/09/10 10:58:19;;;;;;;10.80;3.55;;;;;;;12.80;100.00;97558.71;1792390;79;20955;-57
2022/09/10 11:00:50;;;;;;;5.85;3.60;;;;;;;12.81;100.00;97544.95;1778511;80;20907;-58
2022/09/10 11:03:35;;;;;;;9.95;2.90;;;;;;;12.83;100.00;97525.30;1783705;79;21074;-57
2022/09/10 11:20:32;;;;;;;1.30;1.17;;;;;;;12.88;100.00;97467.91;1769776;80;21097;-58
2022/09/10 11:23:10;;;;;;;4.00;1.10;;;;;;;12.93;100.00;97460.45;1761715;79;21450;-58
2022/09/10 11:25:46;;;;;;;1.05;0.95;;;;;;;13.02;100.00;97449.70;1777117;80;20892;-59
2022/09/10 11:28:18;;;;;;;3.83;1.27;;;;;;;13.11;100.00;97450.51;1778508;79;21874;-58
2022/09/10 11:30:53;;;;;;;1.70;1.20;;;;;;;13.19;100.00;97452.38;1803269;79;21131;-58
2022/09/10 11:33:38;;;;;;;0.85;0.72;;;;;;;13.27;100.00;97448.89;1803872;79;20983;-57
2022/09/10 11:36:13;;;;;;;1.43;0.70;;;;;;;13.32;100.00;97447.37;1804127;79;20916;-58
2022/09/10 11:38:48;;;;;;;0.82;0.80;;;;;;;13.37;100.00;97441.83;1800612;79;21564;-57
2022/09/10 11:41:23;;;;;;;1.85;1.30;;;;;;;13.42;100.00;97436.28;1783567;79;20976;-58
2022/09/10 11:44:24;;;;;;;3.02;1.50;;;;;;;13.43;100.00;97441.08;1782328;79;21096;-59
2022/09/10 11:47:27;;;;;;;6.53;1.60;;;;;;;13.47;100.00;97429.36;1776648;79;21109;-57
2022/09/10 11:50:09;;;;;;;1.60;1.30;;;;;;;13.47;100.00;97429.36;1776122;79;20991;-59
2022/09/10 11:52:36;;;;;;;1.45;1.27;;;;;;;13.48;100.00;97428.26;1772631;80;20840;-58
2022/09/10 11:55:07;;;;;;;2.05;1.55;;;;;;;13.46;100.00;97423.76;1777076;80;20983;-58
2022/09/10 11:57:59;;;;;;;2.95;1.60;;;;;;;13.50;100.00;97417.95;1790824;79;21168;-57
2022/09/10 12:00:26;;;;;;;2.30;1.90;;;;;;;13.51;100.00;97410.13;1746534;79;20995;-56
2022/09/10 12:03:25;;;;;;;1.95;1.60;;;;;;;13.51;100.00;97403.95;1765775;79;21045;-57
2022/09/10 12:06:13;;;;;;;2.37;1.65;;;;;;;13.52;100.00;97393.41;1756417;81;20980;-57
2022/09/10 12:09:22;;;;;;;1.50;1.37;;;;;;;13.57;100.00;97382.47;1759566;81;21023;-59
2022/09/10 12:12:24;;;;;;;1.60;1.25;;;;;;;13.61;100.00;97384.19;1746255;81;21317;-59
2022/09/10 12:14:53;;;;;;;1.32;1.15;;;;;;;13.63;100.00;97375.27;1719477;83;20921;-57
2022/09/10 12:17:26;;;;;;;1.50;1.15;;;;;;;13.63;100.00;97373.92;1798949;77;20868;-57
2022/09/10 12:19:54;;;;;;;1.87;1.30;;;;;;;13.64;100.00;97367.41;1802308;79;20920;-58
2022/09/10 12:22:28;;;;;;;2.10;1.90;;;;;;;13.65;100.00;97360.92;1790026;78;20928;-57
2022/09/10 12:25:17;;;;;;;2.47;2.08;;;;;;;13.64;100.00;97357.98;1798732;79;23091;-58
2022/09/10 12:34:00;;;;;;;3.37;2.58;;;;;;;13.69;100.00;97347.05;1799066;79;21456;-57
2022/09/10 12:36:34;;;;;;;3.05;2.60;;;;;;;13.68;100.00;97340.07;1822165;78;21387;-57
2022/09/10 12:39:25;;;;;;;3.27;2.42;;;;;;;13.66;100.00;97338.27;1821832;78;21278;-58
2022/09/10 12:41:58;;;;;;;3.22;2.62;;;;;;;13.62;100.00;97323.09;1819455;78;21592;-59
2022/09/10 12:44:39;;;;;;;3.17;2.20;;;;;;;13.62;100.00;97316.38;1788507;80;21008;-57
2022/09/10 12:47:21;;;;;;;4.10;2.20;;;;;;;13.62;100.00;97305.06;1748759;82;20986;-58
2022/09/10 12:49:59;;;;;;;4.62;2.40;;;;;;;13.65;100.00;97309.00;1797850;78;21022;-60
2022/09/10 12:52:50;;;;;;;2.90;2.33;;;;;;;13.68;100.00;97298.36;1815085;79;22111;-59
2022/09/10 12:55:56;;;;;;;3.08;2.08;;;;;;;13.75;100.00;97289.79;1817663;78;21041;-60
2022/09/10 12:58:40;;;;;;;3.47;2.30;;;;;;;13.77;100.00;97290.80;1820209;78;21047;-59
2022/09/10 13:01:24;;;;;;;3.42;2.55;;;;;;;13.79;100.00;97275.11;1819720;77;21650;-60
2022/09/10 13:03:54;;;;;;;3.50;2.60;;;;;;;13.83;100.00;97270.09;1821119;78;20951;-59
2022/09/10 13:06:40;;;;;;;4.53;2.65;;;;;;;13.86;100.00;97265.95;1821370;78;21222;-59
2022/09/10 13:09:24;;;;;;;1.92;1.55;;;;;;;13.86;100.00;97260.02;1819950;78;20937;-59
2022/09/10 13:11:53;;;;;;;3.17;2.00;;;;;;;13.90;100.00;97250.70;1819535;78;21012;-59
2022/09/10 13:14:26;;;;;;;3.98;2.20;;;;;;;13.90;100.00;97253.41;1820132;78;20927;-58
2022/09/10 13:16:54;;;;;;;5.37;3.87;;;;;;;13.91;100.00;97246.91;1822302;78;20931;-58
2022/09/10 13:19:26;;;;;;;7.35;3.83;;;;;;;13.93;100.00;97246.02;1821746;78;21181;-57
2022/09/10 13:21:53;;;;;;;4.33;2.90;;;;;;;13.95;100.00;97246.48;1820907;78;20897;-58
2022/09/10 13:24:37;;;;;;;5.40;3.35;;;;;;;13.95;100.00;97239.75;1815477;78;20915;-59
2022/09/10 13:27:32;;;;;;;4.37;3.55;;;;;;;13.98;100.00;97237.75;1815856;79;21454;-59
2022/09/10 13:30:18;;;;;;;3.80;3.10;;;;;;;13.99;100.00;97230.68;1815869;79;20845;-56
2022/09/10 13:32:52;;;;;;;;;;;;;;;14.00;100.00;97234.16;1818612;78;21234;-57
2022/09/10 13:35:41;;;;;;;4.10;2.40;;;;;;;14.01;100.00;97225.78;1815732;79;20064;-57
2022/09/10 13:38:41;;;;;;;4.03;2.83;;;;;;;13.99;100.00;97225.30;1813486;79;20890;-57
2022/09/10 13:41:36;;;;;;;3.30;3.00;;;;;;;13.99;100.00;97225.30;1766271;79;21451;-57
2022/09/10 13:44:20;;;;;;;3.75;2.98;;;;;;;13.99;100.00;97223.19;1789965;79;20963;-56
2022/09/10 13:46:54;;;;;;;3.20;2.72;;;;;;;13.99;100.00;97210.48;1798005;79;21241;-57
2022/09/10 13:49:30;;;;;;;3.60;2.80;;;;;;;13.99;100.00;97221.84;1775854;80;20957;-57
2022/09/10 13:52:01;;;;;;;3.10;2.62;;;;;;;14.00;100.00;97212.63;1775787;80;20849;-57
2022/09/10 13:54:40;;;;;;;3.92;2.83;;;;;;;14.03;100.00;97207.94;1775608;80;21444;-60
